sensor_id;sensor_type;location;lat;lon;timestamp;temperature;humidity
32117;DHT22;18629;48.684;6.178;2022-09-29T00:01:02;15.80;69.80
32117;DHT22;18629;48.684;6.178;2022-09-29T00:03:04;15.80;69.80
32117;DHT22;18629;48.684;6.178;2022-09-29T00:05:07;15.80;69.80
32117;DHT22;18629;48.684;6.178;2022-09-29T00:07:09;15.90;69.90
32117;DHT22;18629;48.684;6.178;2022-09-29T00:09:10;15.80;69.80
32117;DHT22;18629;48.684;6.178;2022-09-29T00:11:16;15.80;69.80
32117;DHT22;18629;48.684;6.178;2022-09-29T00:13:18;15.80;69.90
32117;DHT22;18629;48.684;6.178;2022-09-29T00:15:20;15.80;70.00
32117;DHT22;18629;48.684;6.178;2022-09-29T00:17:22;15.90;70.00
32117;DHT22;18629;48.684;6.178;2022-09-29T00:19:24;15.80;70.00
32117;DHT22;18629;48.684;6.178;2022-09-29T00:21:26;15.80;70.00
32117;DHT22;18629;48.684;6.178;2022-09-29T00:23:29;15.80;70.00
32117;DHT22;18629;48.684;6.178;2022-09-29T00:25:31;15.80;70.00
32117;DHT22;18629;48.684;6.178;2022-09-29T00:27:33;15.80;70.00
32117;DHT22;18629;48.684;6.178;2022-09-29T00:29:35;15.80;70.00
32117;DHT22;18629;48.684;6.178;2022-09-29T00:31:37;15.80;70.00
32117;DHT22;18629;48.684;6.178;2022-09-29T00:33:39;15.80;70.00
32117;DHT22;18629;48.684;6.178;2022-09-29T00:35:41;15.80;70.00
32117;DHT22;18629;48.684;6.178;2022-09-29T00:37:43;15.80;70.00
32117;DHT22;18629;48.684;6.178;2022-09-29T00:39:45;15.80;70.00
32117;DHT22;18629;48.684;6.178;2022-09-29T00:41:47;15.80;70.00
32117;DHT22;18629;48.684;6.178;2022-09-29T00:46:13;15.80;70.10
32117;DHT22;18629;48.684;6.178;2022-09-29T00:48:19;15.80;69.90
32117;DHT22;18629;48.684;6.178;2022-09-29T00:50:41;15.80;70.10
32117;DHT22;18629;48.684;6.178;2022-09-29T00:52:48;15.80;70.10
32117;DHT22;18629;48.684;6.178;2022-09-29T00:54:58;15.80;70.20
32117;DHT22;18629;48.684;6.178;2022-09-29T00:57:02;15.80;70.10
32117;DHT22;18629;48.684;6.178;2022-09-29T00:59:08;15.80;70.20
32117;DHT22;18629;48.684;6.178;2022-09-29T01:01:12;15.80;70.20
32117;DHT22;18629;48.684;6.178;2022-09-29T01:03:17;15.80;70.20
32117;DHT22;18629;48.684;6.178;2022-09-29T01:05:26;15.70;70.20
32117;DHT22;18629;48.684;6.178;2022-09-29T01:07:29;15.70;70.20
32117;DHT22;18629;48.684;6.178;2022-09-29T01:09:34;15.70;70.10
32117;DHT22;18629;48.684;6.178;2022-09-29T01:11:38;15.70;70.10
32117;DHT22;18629;48.684;6.178;2022-09-29T01:13:40;15.70;70.20
32117;DHT22;18629;48.684;6.178;2022-09-29T01:15:42;15.70;70.10
32117;DHT22;18629;48.684;6.178;2022-09-29T01:17:44;15.80;70.20
32117;DHT22;18629;48.684;6.178;2022-09-29T01:29:17;15.80;70.00
32117;DHT22;18629;48.684;6.178;2022-09-29T01:37:14;15.80;70.10
32117;DHT22;18629;48.684;6.178;2022-09-29T01:41:41;15.70;70.60
32117;DHT22;18629;48.684;6.178;2022-09-29T01:44:20;15.70;70.10
32117;DHT22;18629;48.684;6.178;2022-09-29T01:46:27;15.80;70.10
32117;DHT22;18629;48.684;6.178;2022-09-29T01:48:36;15.70;70.10
32117;DHT22;18629;48.684;6.178;2022-09-29T01:50:44;15.80;70.10
32117;DHT22;18629;48.684;6.178;2022-09-29T01:52:58;15.80;70.10
32117;DHT22;18629;48.684;6.178;2022-09-29T01:55:04;15.70;70.00
32117;DHT22;18629;48.684;6.178;2022-09-29T01:57:37;15.80;70.10
32117;DHT22;18629;48.684;6.178;2022-09-29T01:59:51;15.80;70.10
32117;DHT22;18629;48.684;6.178;2022-09-29T02:01:59;15.70;70.00
32117;DHT22;18629;48.684;6.178;2022-09-29T02:04:13;15.80;69.90
32117;DHT22;18629;48.684;6.178;2022-09-29T02:06:22;15.70;69.90
32117;DHT22;18629;48.684;6.178;2022-09-29T02:08:39;15.70;70.00
32117;DHT22;18629;48.684;6.178;2022-09-29T02:11:03;15.70;70.10
32117;DHT22;18629;48.684;6.178;2022-09-29T02:13:07;15.80;70.20
32117;DHT22;18629;48.684;6.178;2022-09-29T02:15:14;15.70;70.10
32117;DHT22;18629;48.684;6.178;2022-09-29T02:17:21;15.70;70.10
32117;DHT22;18629;48.684;6.178;2022-09-29T02:19:26;15.70;70.10
32117;DHT22;18629;48.684;6.178;2022-09-29T02:21:30;15.80;70.20
32117;DHT22;18629;48.684;6.178;2022-09-29T02:23:32;15.80;70.20
32117;DHT22;18629;48.684;6.178;2022-09-29T02:25:35;15.70;70.10
32117;DHT22;18629;48.684;6.178;2022-09-29T02:27:39;15.70;70.10
32117;DHT22;18629;48.684;6.178;2022-09-29T02:29:42;15.70;70.10
32117;DHT22;18629;48.684;6.178;2022-09-29T02:31:46;15.70;70.10
32117;DHT22;18629;48.684;6.178;2022-09-29T02:33:48;15.70;70.10
32117;DHT22;18629;48.684;6.178;2022-09-29T02:36:25;15.70;70.10
32117;DHT22;18629;48.684;6.178;2022-09-29T02:41:17;15.70;70.10
32117;DHT22;18629;48.684;6.178;2022-09-29T02:55:19;15.70;70.10
32117;DHT22;18629;48.684;6.178;2022-09-29T02:59:43;15.70;70.20
32117;DHT22;18629;48.684;6.178;2022-09-29T03:01:49;15.70;70.20
32117;DHT22;18629;48.684;6.178;2022-09-29T03:03:51;15.70;70.20
32117;DHT22;18629;48.684;6.178;2022-09-29T03:05:53;15.70;70.20
32117;DHT22;18629;48.684;6.178;2022-09-29T03:07:56;15.70;70.20
32117;DHT22;18629;48.684;6.178;2022-09-29T03:09:57;15.70;70.20
32117;DHT22;18629;48.684;6.178;2022-09-29T03:11:59;15.70;70.20
32117;DHT22;18629;48.684;6.178;2022-09-29T03:14:01;15.70;70.20
32117;DHT22;18629;48.684;6.178;2022-09-29T03:16:04;15.70;70.30
32117;DHT22;18629;48.684;6.178;2022-09-29T03:18:05;15.70;70.20
32117;DHT22;18629;48.684;6.178;2022-09-29T03:20:10;15.70;70.10
32117;DHT22;18629;48.684;6.178;2022-09-29T03:22:12;15.70;70.30
32117;DHT22;18629;48.684;6.178;2022-09-29T03:24:14;15.70;70.10
32117;DHT22;18629;48.684;6.178;2022-09-29T03:26:16;15.70;70.20
32117;DHT22;18629;48.684;6.178;2022-09-29T03:28:18;15.70;70.30
32117;DHT22;18629;48.684;6.178;2022-09-29T03:30:20;15.70;70.90
32117;DHT22;18629;48.684;6.178;2022-09-29T03:32:24;15.70;70.30
32117;DHT22;18629;48.684;6.178;2022-09-29T03:34:25;15.70;70.20
32117;DHT22;18629;48.684;6.178;2022-09-29T03:36:27;15.70;70.20
32117;DHT22;18629;48.684;6.178;2022-09-29T03:38:31;15.70;70.20
32117;DHT22;18629;48.684;6.178;2022-09-29T03:40:33;15.70;70.20
32117;DHT22;18629;48.684;6.178;2022-09-29T03:42:35;15.70;70.20
32117;DHT22;18629;48.684;6.178;2022-09-29T03:44:37;15.70;70.30
32117;DHT22;18629;48.684;6.178;2022-09-29T03:46:38;15.70;70.30
32117;DHT22;18629;48.684;6.178;2022-09-29T03:48:40;15.70;70.20
32117;DHT22;18629;48.684;6.178;2022-09-29T03:50:44;15.70;70.30
32117;DHT22;18629;48.684;6.178;2022-09-29T03:52:46;15.70;70.30
32117;DHT22;18629;48.684;6.178;2022-09-29T03:54:48;15.70;70.20
32117;DHT22;18629;48.684;6.178;2022-09-29T03:56:50;15.70;70.30
32117;DHT22;18629;48.684;6.178;2022-09-29T03:58:52;15.70;70.30
32117;DHT22;18629;48.684;6.178;2022-09-29T04:00:54;15.70;70.30
32117;DHT22;18629;48.684;6.178;2022-09-29T04:02:57;15.70;70.20
32117;DHT22;18629;48.684;6.178;2022-09-29T04:04:59;15.70;70.40
32117;DHT22;18629;48.684;6.178;2022-09-29T04:07:01;15.70;70.30
32117;DHT22;18629;48.684;6.178;2022-09-29T04:09:03;15.70;70.30
32117;DHT22;18629;48.684;6.178;2022-09-29T04:11:05;15.70;70.30
32117;DHT22;18629;48.684;6.178;2022-09-29T04:13:07;15.70;70.30
32117;DHT22;18629;48.684;6.178;2022-09-29T04:15:09;15.70;70.40
32117;DHT22;18629;48.684;6.178;2022-09-29T04:17:11;15.70;70.30
32117;DHT22;18629;48.684;6.178;2022-09-29T04:19:13;15.70;70.30
32117;DHT22;18629;48.684;6.178;2022-09-29T04:21:15;15.70;70.30
32117;DHT22;18629;48.684;6.178;2022-09-29T04:23:17;15.70;70.30
32117;DHT22;18629;48.684;6.178;2022-09-29T04:25:19;15.70;70.40
32117;DHT22;18629;48.684;6.178;2022-09-29T04:27:21;15.70;70.40
32117;DHT22;18629;48.684;6.178;2022-09-29T04:29:23;15.70;70.40
32117;DHT22;18629;48.684;6.178;2022-09-29T04:31:25;15.70;70.40
32117;DHT22;18629;48.684;6.178;2022-09-29T04:33:27;15.70;70.40
32117;DHT22;18629;48.684;6.178;2022-09-29T04:35:30;15.70;70.40
32117;DHT22;18629;48.684;6.178;2022-09-29T04:37:37;15.70;70.30
32117;DHT22;18629;48.684;6.178;2022-09-29T04:39:39;15.70;70.30
32117;DHT22;18629;48.684;6.178;2022-09-29T04:41:41;15.70;70.50
32117;DHT22;18629;48.684;6.178;2022-09-29T04:43:43;15.70;70.40
32117;DHT22;18629;48.684;6.178;2022-09-29T04:45:45;15.70;70.40
32117;DHT22;18629;48.684;6.178;2022-09-29T04:47:46;15.70;70.50
32117;DHT22;18629;48.684;6.178;2022-09-29T04:49:48;15.70;70.50
32117;DHT22;18629;48.684;6.178;2022-09-29T04:51:50;15.70;70.50
32117;DHT22;18629;48.684;6.178;2022-09-29T04:53:52;15.70;70.50
32117;DHT22;18629;48.684;6.178;2022-09-29T04:55:54;15.70;70.50
32117;DHT22;18629;48.684;6.178;2022-09-29T04:57:56;15.70;70.50
32117;DHT22;18629;48.684;6.178;2022-09-29T04:59:58;15.70;70.50
32117;DHT22;18629;48.684;6.178;2022-09-29T05:02:00;15.70;70.50
32117;DHT22;18629;48.684;6.178;2022-09-29T05:04:02;15.70;70.50
32117;DHT22;18629;48.684;6.178;2022-09-29T05:06:04;15.60;70.40
32117;DHT22;18629;48.684;6.178;2022-09-29T05:08:06;15.70;70.50
32117;DHT22;18629;48.684;6.178;2022-09-29T05:10:08;15.60;70.50
32117;DHT22;18629;48.684;6.178;2022-09-29T05:12:10;15.60;70.40
32117;DHT22;18629;48.684;6.178;2022-09-29T05:14:12;15.70;70.50
32117;DHT22;18629;48.684;6.178;2022-09-29T05:16:14;15.60;70.30
32117;DHT22;18629;48.684;6.178;2022-09-29T05:18:16;15.60;70.20
32117;DHT22;18629;48.684;6.178;2022-09-29T05:20:18;15.60;70.40
32117;DHT22;18629;48.684;6.178;2022-09-29T05:22:20;15.60;70.40
32117;DHT22;18629;48.684;6.178;2022-09-29T05:24:25;15.60;70.40
32117;DHT22;18629;48.684;6.178;2022-09-29T05:26:27;15.60;70.50
32117;DHT22;18629;48.684;6.178;2022-09-29T05:28:29;15.60;70.40
32117;DHT22;18629;48.684;6.178;2022-09-29T05:30:31;15.60;70.50
32117;DHT22;18629;48.684;6.178;2022-09-29T05:32:33;15.60;70.50
32117;DHT22;18629;48.684;6.178;2022-09-29T05:34:35;15.60;70.40
32117;DHT22;18629;48.684;6.178;2022-09-29T05:36:37;15.60;70.50
32117;DHT22;18629;48.684;6.178;2022-09-29T05:38:39;15.70;70.50
32117;DHT22;18629;48.684;6.178;2022-09-29T05:40:41;15.60;70.50
32117;DHT22;18629;48.684;6.178;2022-09-29T05:42:43;15.60;70.40
32117;DHT22;18629;48.684;6.178;2022-09-29T05:44:45;15.60;70.40
32117;DHT22;18629;48.684;6.178;2022-09-29T05:46:47;15.60;70.40
32117;DHT22;18629;48.684;6.178;2022-09-29T05:48:49;15.70;70.50
32117;DHT22;18629;48.684;6.178;2022-09-29T05:50:52;15.60;70.50
32117;DHT22;18629;48.684;6.178;2022-09-29T05:52:55;15.60;70.40
32117;DHT22;18629;48.684;6.178;2022-09-29T05:54:57;15.60;70.40
32117;DHT22;18629;48.684;6.178;2022-09-29T05:56:58;15.60;70.40
32117;DHT22;18629;48.684;6.178;2022-09-29T05:59:00;15.60;70.40
32117;DHT22;18629;48.684;6.178;2022-09-29T06:01:11;15.60;70.40
32117;DHT22;18629;48.684;6.178;2022-09-29T06:03:13;15.70;70.50
32117;DHT22;18629;48.684;6.178;2022-09-29T06:05:15;15.70;70.50
32117;DHT22;18629;48.684;6.178;2022-09-29T06:07:17;15.70;70.40
32117;DHT22;18629;48.684;6.178;2022-09-29T06:09:19;15.70;70.40
32117;DHT22;18629;48.684;6.178;2022-09-29T06:11:23;15.70;70.40
32117;DHT22;18629;48.684;6.178;2022-09-29T06:13:25;15.70;70.40
32117;DHT22;18629;48.684;6.178;2022-09-29T06:15:27;15.70;70.30
32117;DHT22;18629;48.684;6.178;2022-09-29T06:17:29;15.70;70.30
32117;DHT22;18629;48.684;6.178;2022-09-29T06:19:31;15.70;70.30
32117;DHT22;18629;48.684;6.178;2022-09-29T06:21:33;15.70;70.20
32117;DHT22;18629;48.684;6.178;2022-09-29T06:23:36;15.70;70.20
32117;DHT22;18629;48.684;6.178;2022-09-29T06:25:38;15.70;70.20
32117;DHT22;18629;48.684;6.178;2022-09-29T06:27:40;15.70;70.20
32117;DHT22;18629;48.684;6.178;2022-09-29T06:29:42;15.70;70.10
32117;DHT22;18629;48.684;6.178;2022-09-29T06:31:44;15.70;70.00
32117;DHT22;18629;48.684;6.178;2022-09-29T06:33:46;15.70;70.00
32117;DHT22;18629;48.684;6.178;2022-09-29T06:35:48;15.70;69.90
32117;DHT22;18629;48.684;6.178;2022-09-29T06:38:09;15.70;69.80
32117;DHT22;18629;48.684;6.178;2022-09-29T06:40:12;15.70;69.70
32117;DHT22;18629;48.684;6.178;2022-09-29T06:42:14;15.70;69.90
32117;DHT22;18629;48.684;6.178;2022-09-29T06:44:17;15.80;70.00
32117;DHT22;18629;48.684;6.178;2022-09-29T06:46:19;15.80;70.50
32117;DHT22;18629;48.684;6.178;2022-09-29T06:48:22;15.80;69.90
32117;DHT22;18629;48.684;6.178;2022-09-29T06:50:24;15.80;69.70
32117;DHT22;18629;48.684;6.178;2022-09-29T06:52:26;15.80;69.70
32117;DHT22;18629;48.684;6.178;2022-09-29T06:54:30;15.80;69.70
32117;DHT22;18629;48.684;6.178;2022-09-29T06:56:33;15.80;69.60
32117;DHT22;18629;48.684;6.178;2022-09-29T06:58:35;15.80;69.70
32117;DHT22;18629;48.684;6.178;2022-09-29T07:00:37;15.80;69.60
32117;DHT22;18629;48.684;6.178;2022-09-29T07:02:39;15.80;69.50
32117;DHT22;18629;48.684;6.178;2022-09-29T07:04:41;15.80;69.60
32117;DHT22;18629;48.684;6.178;2022-09-29T07:06:43;15.80;69.40
32117;DHT22;18629;48.684;6.178;2022-09-29T07:08:46;15.80;69.30
32117;DHT22;18629;48.684;6.178;2022-09-29T07:10:48;15.90;69.40
32117;DHT22;18629;48.684;6.178;2022-09-29T07:12:50;15.90;69.40
32117;DHT22;18629;48.684;6.178;2022-09-29T07:14:52;15.90;69.20
32117;DHT22;18629;48.684;6.178;2022-09-29T07:16:54;15.90;69.20
32117;DHT22;18629;48.684;6.178;2022-09-29T07:18:56;15.90;69.20
32117;DHT22;18629;48.684;6.178;2022-09-29T07:20:58;15.90;69.30
32117;DHT22;18629;48.684;6.178;2022-09-29T07:23:00;15.90;69.30
32117;DHT22;18629;48.684;6.178;2022-09-29T07:25:02;15.90;69.30
32117;DHT22;18629;48.684;6.178;2022-09-29T07:27:04;15.90;69.20
32117;DHT22;18629;48.684;6.178;2022-09-29T07:29:08;15.90;69.20
32117;DHT22;18629;48.684;6.178;2022-09-29T07:31:22;15.90;69.10
32117;DHT22;18629;48.684;6.178;2022-09-29T07:33:24;15.90;69.10
32117;DHT22;18629;48.684;6.178;2022-09-29T07:35:38;16.00;69.20
32117;DHT22;18629;48.684;6.178;2022-09-29T07:37:41;15.90;69.20
32117;DHT22;18629;48.684;6.178;2022-09-29T07:39:42;15.90;69.00
32117;DHT22;18629;48.684;6.178;2022-09-29T07:41:44;16.00;69.10
32117;DHT22;18629;48.684;6.178;2022-09-29T07:43:46;16.00;69.00
32117;DHT22;18629;48.684;6.178;2022-09-29T07:45:50;16.00;69.00
32117;DHT22;18629;48.684;6.178;2022-09-29T07:47:52;16.00;68.80
32117;DHT22;18629;48.684;6.178;2022-09-29T07:49:56;16.00;68.80
32117;DHT22;18629;48.684;6.178;2022-09-29T07:51:58;16.00;68.60
32117;DHT22;18629;48.684;6.178;2022-09-29T07:54:02;16.00;68.50
32117;DHT22;18629;48.684;6.178;2022-09-29T07:56:06;16.10;68.50
32117;DHT22;18629;48.684;6.178;2022-09-29T07:58:08;16.10;68.50
32117;DHT22;18629;48.684;6.178;2022-09-29T08:00:11;16.10;68.60
32117;DHT22;18629;48.684;6.178;2022-09-29T08:02:13;16.10;68.50
32117;DHT22;18629;48.684;6.178;2022-09-29T08:04:15;16.10;68.60
32117;DHT22;18629;48.684;6.178;2022-09-29T08:06:17;16.10;68.50
32117;DHT22;18629;48.684;6.178;2022-09-29T08:08:20;16.10;68.50
32117;DHT22;18629;48.684;6.178;2022-09-29T08:10:22;16.10;68.40
32117;DHT22;18629;48.684;6.178;2022-09-29T08:12:24;16.10;68.50
32117;DHT22;18629;48.684;6.178;2022-09-29T08:14:41;16.10;68.50
32117;DHT22;18629;48.684;6.178;2022-09-29T08:16:45;16.10;68.40
32117;DHT22;18629;48.684;6.178;2022-09-29T08:18:47;16.10;68.40
32117;DHT22;18629;48.684;6.178;2022-09-29T08:20:49;16.10;68.30
32117;DHT22;18629;48.684;6.178;2022-09-29T08:22:51;16.20;68.40
32117;DHT22;18629;48.684;6.178;2022-09-29T08:24:54;16.20;68.20
32117;DHT22;18629;48.684;6.178;2022-09-29T08:26:56;16.20;68.30
32117;DHT22;18629;48.684;6.178;2022-09-29T08:28:59;16.20;68.30
32117;DHT22;18629;48.684;6.178;2022-09-29T08:31:19;16.20;68.30
32117;DHT22;18629;48.684;6.178;2022-09-29T08:33:22;16.20;68.20
32117;DHT22;18629;48.684;6.178;2022-09-29T08:35:24;16.20;68.00
32117;DHT22;18629;48.684;6.178;2022-09-29T08:37:26;16.20;68.10
32117;DHT22;18629;48.684;6.178;2022-09-29T08:39:32;16.20;68.10
32117;DHT22;18629;48.684;6.178;2022-09-29T08:43:42;16.20;68.10
32117;DHT22;18629;48.684;6.178;2022-09-29T08:45:55;16.20;68.10
32117;DHT22;18629;48.684;6.178;2022-09-29T08:48:11;16.20;68.00
32117;DHT22;18629;48.684;6.178;2022-09-29T08:50:27;16.20;68.00
32117;DHT22;18629;48.684;6.178;2022-09-29T08:52:36;16.20;68.00
32117;DHT22;18629;48.684;6.178;2022-09-29T08:54:58;16.20;68.00
32117;DHT22;18629;48.684;6.178;2022-09-29T08:57:17;16.30;68.00
32117;DHT22;18629;48.684;6.178;2022-09-29T08:59:20;16.30;67.90
32117;DHT22;18629;48.684;6.178;2022-09-29T09:08:07;16.30;67.80
32117;DHT22;18629;48.684;6.178;2022-09-29T09:10:40;16.30;67.90
32117;DHT22;18629;48.684;6.178;2022-09-29T09:24:47;16.30;67.80
32117;DHT22;18629;48.684;6.178;2022-09-29T09:26:49;16.30;67.70
32117;DHT22;18629;48.684;6.178;2022-09-29T09:29:32;16.30;67.80
32117;DHT22;18629;48.684;6.178;2022-09-29T09:31:42;16.30;67.70
32117;DHT22;18629;48.684;6.178;2022-09-29T09:33:52;16.30;67.70
32117;DHT22;18629;48.684;6.178;2022-09-29T09:36:15;16.30;67.70
32117;DHT22;18629;48.684;6.178;2022-09-29T09:38:43;16.40;67.70
32117;DHT22;18629;48.684;6.178;2022-09-29T09:40:51;16.40;67.50
32117;DHT22;18629;48.684;6.178;2022-09-29T09:43:24;16.40;67.40
32117;DHT22;18629;48.684;6.178;2022-09-29T09:45:31;16.50;67.40
32117;DHT22;18629;48.684;6.178;2022-09-29T09:47:39;16.50;67.30
32117;DHT22;18629;48.684;6.178;2022-09-29T09:49:46;16.50;67.40
32117;DHT22;18629;48.684;6.178;2022-09-29T09:52:12;16.50;67.40
32117;DHT22;18629;48.684;6.178;2022-09-29T09:59:03;16.60;67.20
32117;DHT22;18629;48.684;6.178;2022-09-29T10:01:08;16.60;67.10
32117;DHT22;18629;48.684;6.178;2022-09-29T10:03:13;16.60;67.00
32117;DHT22;18629;48.684;6.178;2022-09-29T10:05:19;16.60;66.90
32117;DHT22;18629;48.684;6.178;2022-09-29T10:07:24;16.60;67.10
32117;DHT22;18629;48.684;6.178;2022-09-29T10:09:27;16.50;67.20
32117;DHT22;18629;48.684;6.178;2022-09-29T10:11:30;16.50;67.30
32117;DHT22;18629;48.684;6.178;2022-09-29T10:13:32;16.50;67.40
32117;DHT22;18629;48.684;6.178;2022-09-29T10:17:42;16.40;67.70
32117;DHT22;18629;48.684;6.178;2022-09-29T10:22:11;16.40;67.90
32117;DHT22;18629;48.684;6.178;2022-09-29T10:26:26;16.40;68.00
32117;DHT22;18629;48.684;6.178;2022-09-29T10:28:39;16.30;68.00
32117;DHT22;18629;48.684;6.178;2022-09-29T10:30:42;16.30;68.00
32117;DHT22;18629;48.684;6.178;2022-09-29T10:32:44;16.40;67.90
32117;DHT22;18629;48.684;6.178;2022-09-29T10:34:53;16.40;67.60
32117;DHT22;18629;48.684;6.178;2022-09-29T10:37:05;16.50;67.40
32117;DHT22;18629;48.684;6.178;2022-09-29T10:39:32;16.60;67.20
32117;DHT22;18629;48.684;6.178;2022-09-29T10:41:49;16.70;66.90
32117;DHT22;18629;48.684;6.178;2022-09-29T10:43:54;16.70;66.60
32117;DHT22;18629;48.684;6.178;2022-09-29T10:45:56;16.80;66.40
32117;DHT22;18629;48.684;6.178;2022-09-29T10:48:10;16.90;66.20
32117;DHT22;18629;48.684;6.178;2022-09-29T10:50:25;16.90;66.10
32117;DHT22;18629;48.684;6.178;2022-09-29T10:52:27;17.00;65.90
32117;DHT22;18629;48.684;6.178;2022-09-29T10:54:59;17.00;65.50
32117;DHT22;18629;48.684;6.178;2022-09-29T10:57:15;17.10;65.30
32117;DHT22;18629;48.684;6.178;2022-09-29T10:59:17;17.10;65.10
32117;DHT22;18629;48.684;6.178;2022-09-29T11:01:20;17.10;65.00
32117;DHT22;18629;48.684;6.178;2022-09-29T11:03:25;17.10;64.90
32117;DHT22;18629;48.684;6.178;2022-09-29T11:05:28;17.10;64.80
32117;DHT22;18629;48.684;6.178;2022-09-29T11:07:30;17.10;64.60
32117;DHT22;18629;48.684;6.178;2022-09-29T11:09:38;17.10;64.80
32117;DHT22;18629;48.684;6.178;2022-09-29T11:13:48;17.10;64.50
32117;DHT22;18629;48.684;6.178;2022-09-29T11:15:50;17.10;64.70
32117;DHT22;18629;48.684;6.178;2022-09-29T11:17:52;17.10;64.60
32117;DHT22;18629;48.684;6.178;2022-09-29T11:20:00;17.10;64.80
32117;DHT22;18629;48.684;6.178;2022-09-29T11:22:23;17.10;64.60
32117;DHT22;18629;48.684;6.178;2022-09-29T11:29:07;17.20;64.30
32117;DHT22;18629;48.684;6.178;2022-09-29T11:31:22;17.20;64.00
32117;DHT22;18629;48.684;6.178;2022-09-29T11:33:57;17.30;63.90
32117;DHT22;18629;48.684;6.178;2022-09-29T11:38:39;17.50;63.10
32117;DHT22;18629;48.684;6.178;2022-09-29T11:45:38;17.60;62.70
32117;DHT22;18629;48.684;6.178;2022-09-29T11:53:04;17.80;62.30
32117;DHT22;18629;48.684;6.178;2022-09-29T11:55:33;17.80;62.30
32117;DHT22;18629;48.684;6.178;2022-09-29T11:57:50;17.70;62.10
32117;DHT22;18629;48.684;6.178;2022-09-29T12:00:08;17.70;62.40
32117;DHT22;18629;48.684;6.178;2022-09-29T12:04:59;18.00;61.80
32117;DHT22;18629;48.684;6.178;2022-09-29T12:07:40;18.10;61.20
32117;DHT22;18629;48.684;6.178;2022-09-29T12:14:34;18.00;61.50
32117;DHT22;18629;48.684;6.178;2022-09-29T12:16:52;18.00;61.60
32117;DHT22;18629;48.684;6.178;2022-09-29T12:18:56;18.00;61.40
32117;DHT22;18629;48.684;6.178;2022-09-29T12:21:00;18.10;61.20
32117;DHT22;18629;48.684;6.178;2022-09-29T12:23:10;18.10;61.30
32117;DHT22;18629;48.684;6.178;2022-09-29T12:25:16;18.00;61.40
32117;DHT22;18629;48.684;6.178;2022-09-29T12:27:28;18.00;61.40
32117;DHT22;18629;48.684;6.178;2022-09-29T12:29:37;18.10;61.30
32117;DHT22;18629;48.684;6.178;2022-09-29T12:31:43;18.10;60.90
32117;DHT22;18629;48.684;6.178;2022-09-29T12:33:52;18.20;60.90
32117;DHT22;18629;48.684;6.178;2022-09-29T12:36:08;18.90;58.80
32117;DHT22;18629;48.684;6.178;2022-09-29T12:38:38;19.30;57.50
32117;DHT22;18629;48.684;6.178;2022-09-29T12:43:26;18.80;58.80
32117;DHT22;18629;48.684;6.178;2022-09-29T12:48:16;18.40;60.00
32117;DHT22;18629;48.684;6.178;2022-09-29T12:50:29;18.30;60.30
32117;DHT22;18629;48.684;6.178;2022-09-29T12:52:47;18.50;59.90
32117;DHT22;18629;48.684;6.178;2022-09-29T12:54:53;18.90;58.80
32117;DHT22;18629;48.684;6.178;2022-09-29T12:57:09;18.90;58.40
32117;DHT22;18629;48.684;6.178;2022-09-29T12:59:35;18.90;58.60
32117;DHT22;18629;48.684;6.178;2022-09-29T13:01:39;19.20;57.60
32117;DHT22;18629;48.684;6.178;2022-09-29T13:04:05;20.00;55.30
32117;DHT22;18629;48.684;6.178;2022-09-29T13:15:55;20.40;53.90
32117;DHT22;18629;48.684;6.178;2022-09-29T13:27:50;20.70;52.90
32117;DHT22;18629;48.684;6.178;2022-09-29T13:29:56;20.50;53.40
32117;DHT22;18629;48.684;6.178;2022-09-29T13:32:01;20.30;54.00
32117;DHT22;18629;48.684;6.178;2022-09-29T13:34:04;20.10;54.80
32117;DHT22;18629;48.684;6.178;2022-09-29T13:36:06;20.00;55.30
32117;DHT22;18629;48.684;6.178;2022-09-29T13:40:25;19.70;56.00
32117;DHT22;18629;48.684;6.178;2022-09-29T13:42:40;19.50;56.40
32117;DHT22;18629;48.684;6.178;2022-09-29T13:44:42;19.40;56.80
32117;DHT22;18629;48.684;6.178;2022-09-29T13:46:44;19.20;57.30
32117;DHT22;18629;48.684;6.178;2022-09-29T13:48:51;19.20;57.40
32117;DHT22;18629;48.684;6.178;2022-09-29T13:50:53;19.20;57.70
32117;DHT22;18629;48.684;6.178;2022-09-29T13:58:03;19.10;57.80
32117;DHT22;18629;48.684;6.178;2022-09-29T14:00:16;19.20;57.70
32117;DHT22;18629;48.684;6.178;2022-09-29T14:02:33;19.20;57.40
32117;DHT22;18629;48.684;6.178;2022-09-29T14:06:51;19.10;58.00
32117;DHT22;18629;48.684;6.178;2022-09-29T14:09:11;18.90;58.40
32117;DHT22;18629;48.684;6.178;2022-09-29T14:11:51;18.80;58.80
32117;DHT22;18629;48.684;6.178;2022-09-29T14:14:07;18.70;59.10
32117;DHT22;18629;48.684;6.178;2022-09-29T14:16:24;18.60;59.40
32117;DHT22;18629;48.684;6.178;2022-09-29T14:18:35;18.60;59.60
32117;DHT22;18629;48.684;6.178;2022-09-29T14:21:43;18.60;59.60
32117;DHT22;18629;48.684;6.178;2022-09-29T14:30:00;18.50;59.60
32117;DHT22;18629;48.684;6.178;2022-09-29T14:32:04;18.50;59.80
32117;DHT22;18629;48.684;6.178;2022-09-29T14:34:13;18.50;59.90
32117;DHT22;18629;48.684;6.178;2022-09-29T14:36:18;18.40;60.10
32117;DHT22;18629;48.684;6.178;2022-09-29T14:38:24;18.40;60.20
32117;DHT22;18629;48.684;6.178;2022-09-29T14:40:27;18.40;60.30
32117;DHT22;18629;48.684;6.178;2022-09-29T14:42:30;18.30;60.30
32117;DHT22;18629;48.684;6.178;2022-09-29T14:44:35;18.30;60.50
32117;DHT22;18629;48.684;6.178;2022-09-29T14:50:02;18.20;61.00
32117;DHT22;18629;48.684;6.178;2022-09-29T14:57:32;17.90;61.60
32117;DHT22;18629;48.684;6.178;2022-09-29T15:00:09;17.80;61.80
32117;DHT22;18629;48.684;6.178;2022-09-29T15:02:24;17.80;62.00
32117;DHT22;18629;48.684;6.178;2022-09-29T15:04:27;17.70;62.10
32117;DHT22;18629;48.684;6.178;2022-09-29T15:06:30;17.70;62.30
32117;DHT22;18629;48.684;6.178;2022-09-29T15:08:32;17.60;62.40
32117;DHT22;18629;48.684;6.178;2022-09-29T15:10:39;17.60;62.60
32117;DHT22;18629;48.684;6.178;2022-09-29T15:12:41;17.50;62.70
32117;DHT22;18629;48.684;6.178;2022-09-29T15:14:48;17.50;62.90
32117;DHT22;18629;48.684;6.178;2022-09-29T15:17:04;17.50;62.90
32117;DHT22;18629;48.684;6.178;2022-09-29T15:23:48;17.40;63.10
32117;DHT22;18629;48.684;6.178;2022-09-29T15:25:56;17.40;63.20
32117;DHT22;18629;48.684;6.178;2022-09-29T15:28:48;17.40;63.30
32117;DHT22;18629;48.684;6.178;2022-09-29T15:30:27;17.30;63.30
32117;DHT22;18629;48.684;6.178;2022-09-29T15:32:30;17.30;63.40
32117;DHT22;18629;48.684;6.178;2022-09-29T15:34:37;17.30;63.50
32117;DHT22;18629;48.684;6.178;2022-09-29T15:36:40;17.30;63.60
32117;DHT22;18629;48.684;6.178;2022-09-29T15:38:42;17.20;63.70
32117;DHT22;18629;48.684;6.178;2022-09-29T15:40:52;17.30;63.80
32117;DHT22;18629;48.684;6.178;2022-09-29T15:42:54;17.20;63.80
32117;DHT22;18629;48.684;6.178;2022-09-29T15:45:04;17.20;63.80
32117;DHT22;18629;48.684;6.178;2022-09-29T15:47:20;17.20;64.00
32117;DHT22;18629;48.684;6.178;2022-09-29T15:49:24;17.20;64.00